Station: Parndana  

  Atmospheric Gas Attenuation - ITU Rec 676-11   ----------------- dB/100km -----------------
Date Time Temp RH % AH g/m3 Dew Point Wind Direction Speed kph Gust kph Barometer mB Rainfall Since 9am 24GHz 47GHz 76GHz 122GHz 134GHz 241GHz
08/05 12:00 15.7 81 10.84 12.5 24 30 1013.1 0 24.3 29.0 48.0 126.3 126.0 435.3
08/05 11:50 14.7 84 10.58 12 26 30 1013.1 0 23.8 28.9 47.5 125.0 124.0 428.2
08/05 11:40 14.4 88 10.88 12.4 28 32 1013.1 0 24.4 29.5 49.0 128.9 128.7 444.7
08/05 11:30 15.3 81 10.58 12.1 24 33 1013.1 0 23.7 28.7 47.1 124.0 123.1 424.9
08/05 11:20 15 84 10.77 12.3 26 30 1013.1 0 24.2 29.1 48.1 126.6 126.2 435.8
08/05 11:10 15 87 11.16 12.8 24 30 1013.1 0 25.0 29.8 49.8 131.1 131.7 455.0
08/05 11:00 14.7 85 10.7 12.2 22 30 1013.1 0 24.0 29.1 48.0 126.3 125.7 434.1
08/05 10:50 14.1 92 11.17 12.8 22 26 1013.1 0 25.1 30.1 50.4 132.8 133.4 460.9
08/05 10:40 13.6 90 10.59 12 20 22 1013.1 0 23.9 29.3 48.2 126.9 126.0 434.8
08/05 10:30 14.6 90 11.26 13 22 32 1013.1 0 25.3 30.1 50.5 133.0 133.8 462.4
08/05 10:20 13.8 92 10.96 12.6 19 24 1013.1 0 24.7 29.9 49.7 130.8 130.9 452.1
08/05 10:10 13.3 94 10.86 12.3 26 28 1013.1 0 24.5 29.9 49.6 130.5 130.3 450.1
08/05 10:00 13.6 94 11.06 12.7 22 32 1013.1 0 24.9 30.1 50.3 132.3 132.7 458.4
08/05 09:50 13.6 94 11.06 12.6 20 24 1013.1 0 24.9 30.1 50.3 132.3 132.7 458.4
08/05 09:40 13.5 95 11.11 12.7 28 32 1013.1 0 25.0 30.2 50.5 133.1 133.6 461.5
08/05 09:30 13.3 94 10.86 12.4 22 32 1013.1 0 24.5 29.9 49.6 130.5 130.3 450.1
08/05 09:20 13 95 10.77 12.2 22 28 1013.1 0 24.3 29.8 49.4 130.0 129.5 447.3
08/05 09:10 12.8 95 10.64 12 24 28 1013.1 0 24.0 29.7 48.9 128.8 128.0 441.9
08/05 09:00 12.5 95 10.45 11.7 24 33 1013.1 0 23.6 29.4 48.3 127.1 125.8 434.1
08/05 08:50 12.7 95 10.58 12 24 30 1013.1 0 23.9 29.6 48.7 128.3 127.3 439.5
08/05 08:40 12.4 95 10.38 11.7 19 24 1013.1 0 23.5 29.3 48.0 126.4 124.9 431.1
08/05 08:30 12.5 95 10.45 11.7 19 24 1013.1 0 23.6 29.4 48.3 127.1 125.8 434.1
08/05 08:20 12.4 95 10.38 11.6 19 22 1013.1 0 23.5 29.3 48.0 126.4 124.9 431.1
08/05 08:10 12.3 94 10.21 11.3 19 20 1013.1 0 23.1 29.1 47.4 124.6 122.7 423.2
08/05 08:00 12.3 94 10.21 11.4 17 22 1013.1 0 23.1 29.1 47.4 124.6 122.7 423.2
08/05 07:50 12.2 93 10.04 11.1 19 20 1013.1 0 22.8 28.8 46.7 122.8 120.4 415.2
08/05 07:40 12.1 93 9.97 11 15 17 1013.1 0 22.6 28.7 46.4 122.1 119.6 412.3
08/05 07:30 12.1 90 9.65 10.5 17 22 1013.1 0 21.9 28.2 45.1 118.5 115.0 396.5
08/05 07:20 12.2 87 9.39 10.2 19 20 1013.1 0 21.4 27.7 43.9 115.4 111.3 383.3
08/05 07:10 12.4 85 9.29 9.9 17 22 1013.1 0 21.1 27.5 43.4 113.9 109.6 377.5
08/05 07:00 12.5 84 9.24 9.9 17 26 1013.1 0 21.0 27.3 43.1 113.2 108.8 374.6
08/05 06:50 12.5 83 9.13 9.8 17 20 1013.1 0 20.8 27.2 42.6 112.0 107.3 369.3
08/05 06:40 12.4 85 9.29 9.9 15 17 1013.1 0 21.1 27.5 43.4 113.9 109.6 377.5
08/05 06:30 12.3 85 9.23 9.9 17 20 1013.1 0 21.0 27.4 43.2 113.4 108.9 375.1
08/05 06:20 12.2 85 9.17 9.7 17 19 1013.1 0 20.9 27.3 43.0 112.9 108.2 372.6
08/05 06:10 12.4 81 8.85 9.2 15 17 1013.1 0 20.2 26.7 41.5 109.1 103.6 356.4
08/05 06:00 12.4 80 8.74 9.1 13 17 1013.1 0 20.0 26.5 41.1 107.8 102.1 351.2
08/05 05:50 12.3 81 8.8 9.1 13 15 1013.1 0 20.1 26.7 41.4 108.6 103.0 354.5
08/05 05:40 12.4 80 8.74 9 15 17 1013.1 0 20.0 26.5 41.1 107.8 102.1 351.2
08/05 05:30 12.4 81 8.85 9.2 13 19 1013.1 0 20.2 26.7 41.5 109.1 103.6 356.4
08/05 05:20 12.3 83 9.01 9.5 11 11 1013.1 0 20.5 27.0 42.2 111.0 105.9 364.5
08/05 05:10 12.3 83 9.01 9.5 13 15 1013.1 0 20.5 27.0 42.2 111.0 105.9 364.5
08/05 05:00 12.3 83 9.01 9.5 15 19 1013.1 0 20.5 27.0 42.2 111.0 105.9 364.5
08/05 04:50 12.4 81 8.85 9.2 19 20 1013.1 0 20.2 26.7 41.5 109.1 103.6 356.4
08/05 04:40 12.4 79 8.63 8.8 17 20 1013.1 0 19.7 26.3 40.6 106.6 100.6 346.0
08/05 04:30 12.4 79 8.63 8.9 15 19 1013.1 0 19.7 26.3 40.6 106.6 100.6 346.0
08/05 04:20 12.4 76 8.3 8.4 15 17 1013.1 0 19.0 25.8 39.3 103.1 96.2 330.5
08/05 04:10 12.5 76 8.36 8.5 20 22 1013.1 0 19.1 25.9 39.5 103.6 96.8 332.9
08/05 04:00 12.4 80 8.74 9.1 19 33 1013.1 0 20.0 26.5 41.1 107.8 102.1 351.2
08/05 03:50 12.4 83 9.07 9.6 15 17 1013.1 0 20.7 27.1 42.4 111.5 106.6 366.9
08/05 03:40 12.4 81 8.85 9.2 19 22 1013.1 0 20.2 26.7 41.5 109.1 103.6 356.4
08/05 03:30 12.3 79 8.58 8.8 17 22 1013.1 0 19.6 26.3 40.5 106.2 100.0 344.0
08/05 03:20 12.3 77 8.36 8.5 19 20 1013.1 0 19.1 25.9 39.6 103.8 97.1 333.7
08/05 03:10 12.2 77 8.31 8.4 15 19 1013.1 0 19.0 25.9 39.4 103.4 96.5 331.8
08/05 03:00 12.2 77 8.31 8.3 19 22 1013.1 0 19.0 25.9 39.4 103.4 96.5 331.8
08/05 02:50 12.2 77 8.31 8.3 19 20 1013.1 0 19.0 25.9 39.4 103.4 96.5 331.8
08/05 02:40 12.2 76 8.2 8.1 19 22 1013.1 0 18.8 25.7 39.0 102.2 95.1 326.7
08/05 02:30 12.2 75 8.09 7.9 17 20 1013.1 0 18.6 25.5 38.5 101.0 93.6 321.6
08/05 02:20 12.3 73 7.93 7.6 17 19 1013.1 0 18.2 25.2 37.8 99.2 91.4 313.8
08/05 02:10 12.3 73 7.93 7.6 17 19 1013.1 0 18.2 25.2 37.8 99.2 91.4 313.8
08/05 02:00 12.2 75 8.09 7.9 19 24 1013.1 0 18.6 25.5 38.5 101.0 93.6 321.6
08/05 01:50 12.4 76 8.3 8.4 15 17 1013.1 0 19.0 25.8 39.3 103.1 96.2 330.5
08/05 01:40 12.6 75 8.3 8.4 24 32 1013.1 0 19.0 25.7 39.2 102.8 95.9 329.6
08/05 01:30 12.5 77 8.47 8.6 20 28 1013.1 0 19.4 26.1 39.9 104.8 98.3 338.0
08/05 01:20 12.4 75 8.2 8.1 19 20 1013.1 0 18.8 25.6 38.9 102.0 94.8 325.8
08/05 01:10 12.4 73 7.98 7.7 15 17 1013.1 0 18.3 25.3 38.0 99.6 91.9 315.7
08/05 01:00 12.4 72 7.87 7.5 15 19 1013.1 0 18.1 25.1 37.6 98.4 90.5 310.6
08/05 00:50 12.5 71 7.81 7.4 15 17 1013.1 0 18.0 25.0 37.3 97.7 89.6 307.5
08/05 00:40 12.4 73 7.98 7.7 20 22 1013.1 0 18.3 25.3 38.0 99.6 91.9 315.7
08/05 00:30 12.2 76 8.2 8.1 15 20 1013.1 0 18.8 25.7 39.0 102.2 95.1 326.7
08/05 00:20 12.1 76 8.15 8 17 20 1013.1 0 18.7 25.6 38.8 101.8 94.5 324.8
08/05 00:10 12 75 7.99 7.7 13 15 1013.1 0 18.4 25.4 38.2 100.2 92.5 317.7
08/05 00:00 12.1 74 7.94 7.6 11 17 1013.1 0 18.3 25.3 38.0 99.6 91.8 315.0
07/05 23:50 11.9 74 7.84 7.4 9 13 1013.1 0 18.1 25.2 37.7 98.8 90.7 311.2
07/05 23:40 12 73 7.78 7.3 11 13 1013.1 0 17.9 25.1 37.4 98.0 89.8 308.0
07/05 23:30 12.1 73 7.83 7.4 17 22 1013.1 0 18.0 25.1 37.5 98.4 90.3 309.9
07/05 23:20 12.1 73 7.83 7.4 17 22 1013.1 0 18.0 25.1 37.5 98.4 90.3 309.9
07/05 23:10 12.2 77 8.31 8.3 19 20 1013.1 0 19.0 25.9 39.4 103.4 96.5 331.8
07/05 23:00 12.1 80 8.58 8.8 15 22 1013.1 0 19.6 26.4 40.6 106.5 100.3 344.9
07/05 22:50 11.9 78 8.26 8.3 15 15 1013.1 0 19.0 25.9 39.4 103.3 96.3 330.7
07/05 22:40 11.8 78 8.21 8.1 13 15 1013.1 0 18.9 25.8 39.2 102.9 95.7 328.8
07/05 22:30 11.8 77 8.11 7.9 13 17 1013.1 0 18.6 25.7 38.8 101.8 94.4 324.1
07/05 22:20 11.6 77 8 7.7 15 17 1013.1 0 18.4 25.5 38.5 100.9 93.1 319.8
07/05 22:10 11.3 77 7.86 7.4 11 13 1013.1 0 18.1 25.4 38.0 99.7 91.6 314.5
07/05 22:00 11.1 75 7.56 6.8 11 15 1013.1 0 17.5 25.0 36.9 96.8 87.9 301.4
07/05 21:50 11.8 74 7.79 7.3 11 13 1013.1 0 17.9 25.2 37.5 98.3 90.1 309.3
07/05 21:40 11.6 76 7.9 7.5 15 17 1013.1 0 18.2 25.4 38.1 99.8 91.8 315.2
07/05 21:30 11.3 75 7.65 7 13 20 1013.1 0 17.7 25.1 37.2 97.5 88.9 304.8
07/05 21:20 11.5 77 7.95 7.6 13 15 1013.1 0 18.3 25.5 38.3 100.4 92.6 317.9
07/05 21:10 11.6 76 7.9 7.5 13 17 1013.1 0 18.2 25.4 38.1 99.8 91.8 315.2
07/05 21:00 11.4 78 8.01 7.7 7 11 1013.1 0 18.4 25.6 38.6 101.2 93.5 321.1
07/05 20:50 11.3 79 8.06 7.8 7 7 1013.1 0 18.6 25.7 38.8 101.9 94.3 323.9
07/05 20:40 11.4 79 8.11 7.9 9 11 1013.1 0 18.7 25.8 39.0 102.3 94.9 325.8
07/05 20:30 11.2 80 8.11 7.9 11 13 1013.1 0 18.7 25.8 39.1 102.6 95.1 326.6
07/05 20:20 11.3 79 8.06 7.8 11 11 1013.1 0 18.6 25.7 38.8 101.9 94.3 323.9
07/05 20:10 11 79 7.91 7.5 11 13 1013.1 0 18.2 25.6 38.4 100.6 92.7 318.1
07/05 20:00 11.3 76 7.75 7.2 9 15 1013.1 0 17.9 25.2 37.6 98.5 90.2 309.4
07/05 19:50 11.6 76 7.9 7.5 7 11 1013.1 0 18.2 25.4 38.1 99.8 91.8 315.2
07/05 19:40 11.7 75 7.85 7.4 9 11 1013.1 0 18.1 25.3 37.8 99.1 91.0 312.4
07/05 19:30 11.6 75 7.8 7.3 9 11 1013.1 0 18.0 25.2 37.7 98.7 90.5 310.5

Last Refresh: 08-May-2026 12:08:31

Bureau of Meteorology